Time;durP1;ratioP1;P1;durP2;ratioP2;P2;SDS_P1;SDS_P2;PMS_P1;PMS_P2;Temp;Humidity;BMP_temperature;BMP_pressure;BME280_temperature;BME280_humidity;BME280_pressure;Samples;Min_cycle;Max_cycle;Signal;HPM_P1;HPM_P2
2022/06/18 00:01:33;;;;;;;2.30;1.80;;;;;;;25.10;37.64;101313.22;5077466;28;20410;-59
2022/06/18 00:04:01;;;;;;;5.43;1.90;;;;;;;25.08;37.63;101321.59;5052721;28;20421;-61
2022/06/18 00:06:29;;;;;;;4.75;1.92;;;;;;;25.00;37.93;101314.75;5061268;28;20495;-63
2022/06/18 00:08:58;;;;;;;3.53;2.20;;;;;;;24.97;38.01;101320.69;5063394;28;20444;-60
2022/06/18 00:14:11;;;;;;;3.05;2.25;;;;;;;24.93;38.24;101322.25;5062464;28;20431;-61
2022/06/18 00:16:38;;;;;;;4.05;2.50;;;;;;;24.97;38.44;101323.41;5068002;28;20430;-63
2022/06/18 00:21:06;;;;;;;3.22;2.40;;;;;;;24.93;38.48;101316.81;5068645;27;20419;-60
2022/06/18 00:23:34;;;;;;;3.20;2.50;;;;;;;24.87;38.62;101317.03;5077957;28;20505;-61
2022/06/18 00:27:38;;;;;;;3.97;2.60;;;;;;;24.80;39.15;101309.88;5079651;27;20467;-61
2022/06/18 00:30:10;;;;;;;7.03;3.08;;;;;;;24.76;39.18;101319.59;5066627;28;20494;-61
2022/06/18 00:32:37;;;;;;;4.72;3.20;;;;;;;24.70;39.50;101328.72;5065761;28;20774;-60
2022/06/18 00:35:05;;;;;;;4.43;3.05;;;;;;;24.66;39.89;101315.91;5065467;28;20420;-61
2022/06/18 00:37:32;;;;;;;4.82;3.10;;;;;;;24.58;39.87;101320.69;5066351;28;20423;-61
2022/06/18 00:42:03;;;;;;;6.38;3.40;;;;;;;24.45;40.09;101317.47;5102692;27;20440;-60
2022/06/18 00:44:32;;;;;;;5.43;3.35;;;;;;;24.36;40.42;101314.34;5086283;28;20994;-61
2022/06/18 00:47:14;;;;;;;5.05;3.00;;;;;;;24.30;40.65;101315.34;5085254;28;20800;-61
2022/06/18 00:49:49;;;;;;;7.25;3.30;;;;;;;24.23;41.08;101316.31;5086267;28;20406;-60
2022/06/18 00:52:22;;;;;;;5.28;3.17;;;;;;;24.26;41.18;101322.34;5086297;28;20424;-60
2022/06/18 00:54:57;;;;;;;6.22;3.10;;;;;;;24.21;40.83;101317.66;5085908;28;20414;-60
2022/06/18 00:57:31;;;;;;;6.47;3.20;;;;;;;24.18;41.23;101316.28;5082644;28;20958;-61
2022/06/18 01:00:04;;;;;;;6.63;3.28;;;;;;;24.18;41.23;101312.72;5086068;28;20426;-60
2022/06/18 01:02:34;;;;;;;4.75;2.90;;;;;;;24.13;41.44;101313.47;5085691;28;20489;-61
2022/06/18 01:05:02;;;;;;;6.22;3.30;;;;;;;24.14;41.57;101314.28;5085600;28;20429;-61
2022/06/18 01:07:32;;;;;;;4.78;3.30;;;;;;;24.14;41.44;101325.13;5085816;28;20493;-60
2022/06/18 01:10:02;;;;;;;4.82;3.03;;;;;;;24.01;41.75;101329.78;5085530;28;20808;-61
2022/06/18 01:16:37;;;;;;;4.20;2.60;;;;;;;23.92;41.85;101322.31;5083165;27;20404;-60
2022/06/18 01:19:09;;;;;;;3.45;2.60;;;;;;;23.91;41.77;101320.66;5066040;28;20917;-60
2022/06/18 01:21:45;;;;;;;4.85;2.85;;;;;;;23.87;41.84;101330.34;5065970;28;20938;-60
2022/06/18 01:24:16;;;;;;;4.43;2.88;;;;;;;23.80;41.97;101323.19;5065762;28;20809;-63
2022/06/18 01:26:46;;;;;;;5.13;2.85;;;;;;;23.75;42.17;101322.25;5066219;28;20422;-62
2022/06/18 01:31:22;;;;;;;6.68;2.80;;;;;;;23.71;42.55;101321.91;5107981;27;20400;-60
2022/06/18 01:33:49;;;;;;;4.60;2.70;;;;;;;23.65;42.60;101314.78;5086454;28;20418;-62
2022/06/18 01:37:18;;;;;;;4.18;2.60;;;;;;;23.71;42.48;101318.38;5098442;27;20402;-63
2022/06/18 01:39:48;;;;;;;5.93;2.77;;;;;;;23.65;42.41;101321.00;5086414;28;20804;-62
2022/06/18 01:42:21;;;;;;;4.87;2.60;;;;;;;23.66;42.69;101319.94;5073743;28;20424;-62
2022/06/18 01:44:52;;;;;;;4.35;2.75;;;;;;;23.65;42.54;101322.91;5082930;28;20510;-62
2022/06/18 01:47:23;;;;;;;3.13;2.65;;;;;;;23.47;42.67;101327.44;5072227;28;20816;-62
2022/06/18 01:49:57;;;;;;;3.90;2.65;;;;;;;23.37;42.79;101329.97;5086067;28;20497;-62
2022/06/18 01:52:30;;;;;;;4.27;2.60;;;;;;;23.24;43.53;101336.44;5086107;28;20871;-63
2022/06/18 01:55:00;;;;;;;3.80;2.50;;;;;;;23.25;43.40;101332.69;5082177;28;20913;-63
2022/06/18 01:57:32;;;;;;;3.38;2.67;;;;;;;23.28;43.25;101334.91;5080319;28;21041;-62
2022/06/18 02:00:08;;;;;;;3.92;2.53;;;;;;;23.26;43.08;101337.03;5084928;28;20492;-63
2022/06/18 02:02:35;;;;;;;6.80;2.88;;;;;;;23.32;43.27;101339.81;5075372;28;20506;-62
2022/06/18 02:07:51;;;;;;;4.53;2.85;;;;;;;23.46;42.85;101341.19;5076909;28;20463;-63
2022/06/18 02:10:22;;;;;;;3.22;2.75;;;;;;;23.50;42.75;101347.78;5069224;28;20511;-63
2022/06/18 02:12:49;;;;;;;4.18;2.60;;;;;;;23.50;42.63;101345.09;5059450;28;20497;-63
2022/06/18 02:15:20;;;;;;;4.30;2.70;;;;;;;23.56;42.53;101341.41;5056910;28;20505;-63
2022/06/18 02:17:48;;;;;;;4.38;2.67;;;;;;;23.60;42.43;101344.44;5077570;28;20422;-63
2022/06/18 02:20:19;;;;;;;3.00;2.47;;;;;;;23.61;42.63;101340.69;5066888;28;20430;-62
2022/06/18 02:22:49;;;;;;;3.17;2.35;;;;;;;23.62;42.28;101342.31;5065204;28;20498;-63
2022/06/18 02:25:20;;;;;;;3.10;2.63;;;;;;;23.51;42.51;101352.13;5052988;28;20491;-60
2022/06/18 02:30:25;;;;;;;4.72;2.50;;;;;;;23.55;42.22;101366.00;5069595;28;20408;-62
2022/06/18 02:32:57;;;;;;;4.35;2.55;;;;;;;23.58;42.34;101363.63;5054202;28;20444;-62
2022/06/18 02:35:24;;;;;;;6.78;3.00;;;;;;;23.55;42.39;101355.16;5044971;28;20415;-63
2022/06/18 02:37:54;;;;;;;5.30;2.70;;;;;;;23.57;42.25;101361.16;5061541;28;20416;-62
2022/06/18 02:40:24;;;;;;;4.38;2.50;;;;;;;23.51;42.47;101362.94;5053920;28;21003;-62
2022/06/18 02:42:55;;;;;;;4.63;2.70;;;;;;;23.49;42.53;101359.66;5046191;28;20421;-63
2022/06/18 02:45:26;;;;;;;4.22;2.42;;;;;;;23.44;42.29;101357.69;5050164;28;20420;-62
2022/06/18 02:47:56;;;;;;;6.20;2.88;;;;;;;23.48;42.55;101358.84;5055051;28;20409;-63
2022/06/18 02:50:26;;;;;;;3.65;2.53;;;;;;;23.53;42.20;101355.41;5045541;28;20815;-62
2022/06/18 02:52:56;;;;;;;4.77;2.53;;;;;;;23.57;42.51;101363.88;5051129;28;20508;-63
2022/06/18 02:55:29;;;;;;;6.72;3.17;;;;;;;23.58;42.54;101362.81;5049048;28;20461;-63
2022/06/18 02:58:02;;;;;;;5.30;3.00;;;;;;;23.62;42.34;101366.66;5053701;28;20427;-62
2022/06/18 03:00:31;;;;;;;5.93;2.67;;;;;;;23.58;42.17;101373.63;5058537;28;20416;-62
2022/06/18 03:02:58;;;;;;;5.28;2.63;;;;;;;23.60;42.23;101372.31;5052657;28;20417;-63
2022/06/18 03:05:28;;;;;;;4.75;2.70;;;;;;;23.64;42.02;101378.06;5043363;28;20502;-63
2022/06/18 03:07:55;;;;;;;6.43;2.85;;;;;;;23.64;42.33;101378.06;5053144;28;20424;-62
2022/06/18 03:13:08;;;;;;;3.70;2.75;;;;;;;23.65;42.53;101388.66;5052996;28;20420;-62
2022/06/18 03:15:36;;;;;;;4.83;2.97;;;;;;;23.64;42.65;101395.16;5054150;28;20801;-62
2022/06/18 03:18:06;;;;;;;4.97;3.00;;;;;;;23.65;42.05;101390.56;5046742;28;20504;-62
2022/06/18 03:20:54;;;;;;;6.38;2.92;;;;;;;23.65;42.51;101398.69;5058254;28;20416;-62
2022/06/18 03:23:23;;;;;;;4.00;2.70;;;;;;;23.70;42.48;101403.34;5049290;28;20424;-62
2022/06/18 03:25:50;;;;;;;4.10;2.55;;;;;;;23.73;42.55;101409.09;5054981;28;20423;-62
2022/06/18 03:28:19;;;;;;;5.18;3.25;;;;;;;23.78;42.49;101405.69;5051872;28;20516;-62
2022/06/18 03:30:47;;;;;;;7.90;3.42;;;;;;;23.84;42.41;101408.28;5045707;28;20934;-62
2022/06/18 03:33:14;;;;;;;5.65;3.22;;;;;;;23.91;42.52;101413.53;5058629;28;20489;-63
2022/06/18 03:35:44;;;;;;;6.80;3.80;;;;;;;23.99;42.23;101421.28;5057675;28;20940;-62
2022/06/18 03:38:11;;;;;;;3.65;3.05;;;;;;;24.12;42.10;101413.94;5058380;28;20416;-62
2022/06/18 03:40:38;;;;;;;5.18;3.88;;;;;;;24.21;41.72;101416.00;5042894;28;20497;-62
2022/06/18 03:43:06;;;;;;;5.10;3.80;;;;;;;24.34;41.27;101414.84;5033165;28;20970;-62
2022/06/18 03:45:38;;;;;;;4.78;2.80;;;;;;;24.47;40.95;101411.03;5035822;28;20901;-62
2022/06/18 03:48:08;;;;;;;5.18;2.92;;;;;;;24.59;40.80;101422.63;5047866;28;20522;-62
2022/06/18 03:50:35;;;;;;;3.60;2.60;;;;;;;24.67;40.45;101409.72;5039736;28;20506;-62
2022/06/18 03:53:03;;;;;;;4.07;2.80;;;;;;;24.73;40.12;101411.44;5034462;28;20517;-62
2022/06/18 03:55:30;;;;;;;6.90;3.00;;;;;;;24.80;40.03;101409.41;5032890;28;20521;-62
2022/06/18 03:57:57;;;;;;;3.63;2.92;;;;;;;24.94;39.73;101407.97;5042835;28;20418;-62
2022/06/18 04:00:24;;;;;;;6.97;3.25;;;;;;;25.12;39.60;101404.16;5039592;28;20782;-62
2022/06/18 04:02:51;;;;;;;6.00;3.20;;;;;;;25.27;38.98;101406.28;5038089;28;20422;-62
2022/06/18 04:05:20;;;;;;;4.45;2.92;;;;;;;25.42;39.01;101407.53;5033633;28;20420;-61
2022/06/18 04:07:47;;;;;;;3.85;2.50;;;;;;;25.61;38.71;101410.78;5037276;28;20427;-62
2022/06/18 04:10:18;;;;;;;4.53;2.42;;;;;;;25.74;38.42;101411.16;5047733;28;20428;-62
2022/06/18 04:12:45;;;;;;;4.60;2.70;;;;;;;25.73;38.68;101409.56;5039144;28;20512;-61
2022/06/18 04:15:13;;;;;;;4.40;2.90;;;;;;;25.92;38.14;101407.28;5035534;28;20429;-62
2022/06/18 04:17:40;;;;;;;4.10;2.47;;;;;;;26.11;37.49;101407.78;5033342;28;20419;-62
2022/06/18 04:20:14;;;;;;;4.83;2.40;;;;;;;26.28;37.57;101410.38;5032594;28;20520;-62
2022/06/18 04:22:42;;;;;;;3.28;2.30;;;;;;;26.51;36.97;101400.25;5036890;28;20418;-62
2022/06/18 04:25:10;;;;;;;5.55;2.70;;;;;;;26.59;36.97;101410.63;5032713;28;20410;-62
2022/06/18 04:27:37;;;;;;;3.13;2.10;;;;;;;26.85;36.88;101411.66;5036810;28;20504;-62
2022/06/18 04:30:04;;;;;;;4.22;2.60;;;;;;;27.03;36.61;101412.31;5031152;28;20430;-61
2022/06/18 04:32:31;;;;;;;6.40;3.45;;;;;;;27.39;36.03;101413.34;5041708;28;20504;-61
2022/06/18 04:34:58;;;;;;;3.28;2.42;;;;;;;27.78;35.30;101417.53;5039294;28;20460;-62
2022/06/18 04:37:25;;;;;;;6.30;2.60;;;;;;;28.06;34.63;101424.44;5042851;28;21548;-62
2022/06/18 04:39:54;;;;;;;3.63;2.50;;;;;;;28.28;34.42;101431.56;5040591;28;20419;-62
2022/06/18 04:42:20;;;;;;;4.75;2.55;;;;;;;28.50;33.98;101426.63;5033285;28;20423;-63
2022/06/18 04:44:47;;;;;;;5.93;2.60;;;;;;;28.69;34.00;101426.94;5030998;28;20444;-62
2022/06/18 04:47:14;;;;;;;5.00;2.78;;;;;;;28.93;33.68;101432.63;5042565;28;20804;-61
2022/06/18 04:49:41;;;;;;;5.40;2.70;;;;;;;29.19;33.36;101423.56;5041972;28;20428;-62
2022/06/18 04:52:08;;;;;;;5.13;2.70;;;;;;;29.40;32.88;101427.84;5034787;28;20939;-62
2022/06/18 04:54:35;;;;;;;4.57;2.90;;;;;;;29.87;32.29;101426.56;5033069;28;20505;-62
2022/06/18 04:57:04;;;;;;;4.53;2.80;;;;;;;30.57;31.11;101430.16;5043848;28;20508;-62
2022/06/18 04:59:31;;;;;;;4.30;2.70;;;;;;;31.15;30.03;101432.06;5043620;28;20416;-62
2022/06/18 05:02:00;;;;;;;6.07;3.50;;;;;;;31.62;30.26;101428.47;5041009;28;20420;-63
2022/06/18 05:04:27;;;;;;;4.75;2.70;;;;;;;31.91;29.13;101433.00;5037612;28;20414;-62
2022/06/18 05:06:54;;;;;;;4.72;2.70;;;;;;;32.32;28.66;101437.06;5031252;28;20521;-62
2022/06/18 05:09:21;;;;;;;3.13;2.75;;;;;;;32.64;28.58;101428.03;5032095;28;20517;-62
2022/06/18 05:11:48;;;;;;;4.90;2.85;;;;;;;32.63;28.63;101431.06;5042381;28;20435;-62
2022/06/18 05:14:17;;;;;;;3.97;2.97;;;;;;;32.68;28.76;101441.97;5042856;28;20423;-60
2022/06/18 05:16:44;;;;;;;3.47;2.70;;;;;;;32.81;27.92;101452.16;5030272;28;20429;-60
2022/06/18 05:19:22;;;;;;;4.97;2.63;;;;;;;33.13;28.20;101444.97;5043883;28;20432;-61
2022/06/18 05:21:49;;;;;;;4.45;2.90;;;;;;;33.55;27.82;101451.28;5021399;28;20928;-60
2022/06/18 05:24:16;;;;;;;5.23;3.17;;;;;;;33.17;28.25;101458.91;5042078;28;20995;-60
2022/06/18 05:26:46;;;;;;;4.53;3.20;;;;;;;33.42;27.64;101458.41;5037513;28;20422;-60
2022/06/18 05:29:14;;;;;;;3.65;3.35;;;;;;;33.53;27.82;101473.56;5036562;28;20525;-62
2022/06/18 05:31:42;;;;;;;5.32;3.53;;;;;;;33.36;27.82;101462.38;5034927;28;20428;-62
2022/06/18 05:34:09;;;;;;;4.22;3.20;;;;;;;33.04;28.55;101464.06;5037145;28;20413;-60
2022/06/18 05:36:36;;;;;;;5.95;3.40;;;;;;;33.28;28.05;101465.84;5042933;28;20451;-60
2022/06/18 05:39:04;;;;;;;4.05;3.15;;;;;;;33.74;27.67;101469.59;5031034;28;20796;-61
2022/06/18 05:41:31;;;;;;;3.13;2.83;;;;;;;33.29;27.91;101471.03;5035731;28;20501;-60
2022/06/18 05:43:59;;;;;;;3.38;2.90;;;;;;;33.68;27.79;101472.44;5030301;28;20419;-60
2022/06/18 05:46:26;;;;;;;4.20;3.10;;;;;;;33.81;27.70;101469.97;5039297;28;21007;-62
2022/06/18 05:48:55;;;;;;;4.47;3.20;;;;;;;34.38;27.23;101464.00;5038433;28;20421;-61
2022/06/18 05:51:22;;;;;;;3.42;3.08;;;;;;;34.89;26.36;101468.19;5035982;28;20915;-60
2022/06/18 05:53:49;;;;;;;4.82;3.28;;;;;;;34.96;26.34;101471.28;5032466;28;20432;-61
2022/06/18 05:56:17;;;;;;;3.65;3.20;;;;;;;35.16;25.63;101469.91;5037979;28;20591;-61
2022/06/18 05:58:44;;;;;;;4.45;3.30;;;;;;;35.26;25.68;101470.78;5042990;28;20427;-60
2022/06/18 06:01:10;;;;;;;3.97;3.60;;;;;;;34.84;26.35;101471.91;5037203;28;20422;-60
2022/06/18 06:03:37;;;;;;;4.53;3.63;;;;;;;34.58;26.65;101468.97;5035436;28;20416;-61
2022/06/18 06:06:06;;;;;;;4.93;3.25;;;;;;;35.14;26.24;101471.38;5029287;28;20424;-60
2022/06/18 06:08:33;;;;;;;5.07;3.20;;;;;;;35.33;26.34;101474.72;5039711;28;20412;-61
2022/06/18 06:13:44;;;;;;;4.43;3.78;;;;;;;35.60;25.16;101472.78;5026793;28;20458;-61
2022/06/18 06:16:12;;;;;;;5.30;3.60;;;;;;;35.53;25.04;101478.81;5030656;28;20418;-60
2022/06/18 06:18:39;;;;;;;4.60;3.43;;;;;;;35.73;25.08;101485.69;5040298;28;20455;-61
2022/06/18 06:21:07;;;;;;;3.47;3.17;;;;;;;35.73;25.13;101487.63;5041418;28;20424;-61
2022/06/18 06:23:34;;;;;;;4.05;3.65;;;;;;;35.76;24.60;101486.97;5024079;28;20478;-60
2022/06/18 06:26:01;;;;;;;4.72;3.75;;;;;;;35.66;25.04;101490.84;5032716;28;20424;-61
2022/06/18 06:28:30;;;;;;;4.72;3.78;;;;;;;35.99;24.41;101482.94;5019870;28;20425;-61
2022/06/18 06:30:58;;;;;;;3.60;3.30;;;;;;;36.36;24.20;101477.09;5040978;28;21051;-61
2022/06/18 06:33:25;;;;;;;4.38;3.35;;;;;;;36.82;23.84;101481.06;5038550;28;20971;-61
2022/06/18 06:35:52;;;;;;;4.35;3.95;;;;;;;37.36;23.31;101482.47;5030704;28;20518;-61
2022/06/18 06:38:21;;;;;;;4.50;3.67;;;;;;;37.41;23.58;101480.31;5030430;28;20437;-61
2022/06/18 06:40:48;;;;;;;4.25;3.88;;;;;;;36.83;23.74;101479.13;5029476;28;20410;-62
2022/06/18 06:43:17;;;;;;;4.35;3.70;;;;;;;36.48;24.04;101477.25;5008075;28;20525;-65
2022/06/18 06:45:44;;;;;;;4.40;3.93;;;;;;;36.30;24.37;101475.63;5030120;28;20498;-61
2022/06/18 06:48:12;;;;;;;4.57;3.78;;;;;;;36.15;24.41;101474.16;5029063;28;20414;-61
2022/06/18 06:50:40;;;;;;;3.80;3.40;;;;;;;36.98;23.78;101473.03;5028863;28;20520;-62
2022/06/18 06:53:07;;;;;;;5.95;3.15;;;;;;;36.90;23.51;101485.75;5028916;28;20507;-62
2022/06/18 06:58:22;;;;;;;6.60;3.60;;;;;;;36.34;23.77;101484.91;5029683;28;20945;-61
2022/06/18 07:00:53;;;;;;;5.28;3.35;;;;;;;35.95;24.80;101481.97;5028029;28;20454;-62
2022/06/18 07:03:24;;;;;;;5.00;3.30;;;;;;;35.48;24.96;101495.50;5030404;28;20507;-61
2022/06/18 07:05:51;;;;;;;3.53;3.13;;;;;;;35.30;25.42;101491.09;5028837;28;20476;-63
2022/06/18 07:08:17;;;;;;;3.77;3.27;;;;;;;34.93;26.34;101491.22;5029752;28;20410;-61
2022/06/18 07:10:48;;;;;;;3.20;2.90;;;;;;;34.61;26.06;101490.38;5029452;28;20794;-61
2022/06/18 07:13:15;;;;;;;5.63;3.88;;;;;;;33.95;27.01;101495.50;5023483;28;20982;-62
2022/06/18 07:15:43;;;;;;;4.65;3.30;;;;;;;33.16;28.33;101496.56;5029436;28;20418;-61
2022/06/18 07:18:15;;;;;;;5.88;3.60;;;;;;;33.03;29.22;101495.41;5031442;28;20517;-62
2022/06/18 07:20:42;;;;;;;4.18;3.78;;;;;;;33.06;29.03;101503.06;5031213;28;20429;-61
2022/06/18 07:23:09;;;;;;;4.47;3.08;;;;;;;32.75;28.81;101500.88;5033740;28;20434;-62
2022/06/18 07:25:36;;;;;;;4.70;3.25;;;;;;;32.39;29.52;101501.44;5031332;28;20426;-61
2022/06/18 07:28:05;;;;;;;4.78;3.17;;;;;;;31.63;29.77;101498.63;5032714;28;20936;-61
2022/06/18 07:30:32;;;;;;;5.45;3.08;;;;;;;31.38;30.91;101499.72;5032432;28;20873;-61
2022/06/18 07:32:59;;;;;;;4.70;2.90;;;;;;;30.94;31.37;101502.66;5033160;28;20964;-62
2022/06/18 07:35:29;;;;;;;4.50;3.10;;;;;;;30.70;31.95;101500.63;5032306;28;20476;-62
2022/06/18 07:37:56;;;;;;;3.28;2.97;;;;;;;30.39;32.29;101506.34;5031056;28;20422;-61
2022/06/18 07:40:23;;;;;;;3.63;3.00;;;;;;;29.91;33.17;101508.81;5032325;28;20418;-60
2022/06/18 07:42:54;;;;;;;4.35;3.20;;;;;;;29.63;33.92;101508.34;5031259;28;20457;-60
2022/06/18 07:45:24;;;;;;;4.43;3.47;;;;;;;29.54;34.25;101515.50;5032188;28;20414;-60
2022/06/18 07:47:52;;;;;;;4.40;3.10;;;;;;;29.48;34.03;101514.69;5034240;28;20512;-60
2022/06/18 07:50:21;;;;;;;5.32;3.63;;;;;;;29.40;34.54;101515.25;5031072;28;20449;-61
2022/06/18 07:52:49;;;;;;;4.00;3.00;;;;;;;29.33;34.68;101509.25;5032307;28;20994;-61
2022/06/18 07:55:18;;;;;;;4.30;3.40;;;;;;;29.09;34.60;101509.84;5031155;28;20501;-60
2022/06/18 07:57:46;;;;;;;5.03;3.47;;;;;;;28.81;35.47;101503.06;5033296;28;20425;-61
2022/06/18 08:00:16;;;;;;;5.15;3.60;;;;;;;28.86;35.85;101515.88;5031148;28;20426;-61
2022/06/18 08:02:46;;;;;;;4.37;3.30;;;;;;;28.79;36.07;101521.59;5032347;28;20445;-62
2022/06/18 08:05:19;;;;;;;5.15;3.28;;;;;;;28.63;36.08;101525.41;5032777;28;20501;-61
2022/06/18 08:07:46;;;;;;;4.40;3.35;;;;;;;28.66;36.44;101522.97;5034280;28;20418;-62
2022/06/18 08:10:13;;;;;;;4.47;3.47;;;;;;;28.66;36.34;101513.97;5022282;28;20438;-62
2022/06/18 08:12:40;;;;;;;4.80;3.53;;;;;;;28.82;36.26;101506.59;5030009;28;20520;-62
2022/06/18 08:15:09;;;;;;;3.60;3.30;;;;;;;28.67;36.69;101507.44;5027764;28;20509;-63
2022/06/18 08:17:36;;;;;;;3.72;3.33;;;;;;;28.63;36.64;101514.50;5027575;28;20472;-62
2022/06/18 08:20:08;;;;;;;4.20;3.20;;;;;;;28.44;36.65;101519.66;5028083;28;20422;-62
2022/06/18 08:22:37;;;;;;;4.68;3.20;;;;;;;28.48;36.97;101507.91;5026028;28;20525;-64
2022/06/18 08:25:06;;;;;;;6.10;3.55;;;;;;;28.59;37.25;101514.22;5026452;28;20480;-64
2022/06/18 08:27:33;;;;;;;5.03;4.10;;;;;;;28.54;36.82;101515.06;5032921;28;20418;-65
2022/06/18 08:30:01;;;;;;;4.25;3.70;;;;;;;28.48;37.29;101507.91;5029727;28;20516;-63
2022/06/18 08:32:28;;;;;;;4.50;3.60;;;;;;;28.56;37.25;101501.97;5026154;28;20510;-62
2022/06/18 08:34:55;;;;;;;5.78;3.35;;;;;;;28.68;37.24;101507.13;5028118;28;20418;-64
2022/06/18 08:37:24;;;;;;;4.95;3.20;;;;;;;28.74;37.18;101513.44;5028640;28;20939;-62
2022/06/18 08:39:52;;;;;;;5.03;3.27;;;;;;;29.00;36.73;101507.94;5026947;28;20421;-64
2022/06/18 08:42:41;;;;;;;4.25;3.10;;;;;;;29.19;36.43;101500.03;5029712;28;20417;-64
2022/06/18 08:45:22;;;;;;;4.60;3.40;;;;;;;29.21;35.90;101508.75;5028497;28;20410;-62
2022/06/18 08:48:15;;;;;;;4.70;3.28;;;;;;;29.15;36.20;101516.13;5027939;28;20995;-63
2022/06/18 08:50:57;;;;;;;5.35;3.05;;;;;;;29.21;36.23;101506.84;5028657;28;20442;-62
2022/06/18 08:53:44;;;;;;;4.20;3.65;;;;;;;29.22;36.66;101508.47;5028733;28;20422;-62
2022/06/18 08:56:16;;;;;;;5.90;3.33;;;;;;;29.17;36.25;101503.03;5029161;28;20414;-62
2022/06/18 08:58:53;;;;;;;3.88;3.20;;;;;;;29.16;36.20;101506.84;5027676;28;20457;-63
2022/06/18 09:01:25;;;;;;;4.40;3.33;;;;;;;28.92;36.86;101507.41;5028668;28;20952;-62
2022/06/18 09:04:03;;;;;;;5.97;3.40;;;;;;;28.69;37.12;101511.50;5029875;28;20497;-62
2022/06/18 09:06:42;;;;;;;5.25;3.10;;;;;;;28.71;36.82;101517.50;5030114;28;20422;-62
2022/06/18 09:09:22;;;;;;;3.78;2.80;;;;;;;28.69;36.73;101508.78;5028567;28;20432;-62
2022/06/18 09:12:08;;;;;;;4.37;2.73;;;;;;;28.66;37.02;101514.78;5027905;28;20426;-62
2022/06/18 09:14:41;;;;;;;4.03;2.72;;;;;;;28.74;36.38;101511.50;5026987;28;20932;-63
2022/06/18 09:17:14;;;;;;;4.88;2.97;;;;;;;28.94;36.51;101518.06;5027775;28;20418;-62
2022/06/18 09:19:44;;;;;;;4.10;2.78;;;;;;;28.90;36.43;101512.34;5026547;28;20424;-64
2022/06/18 09:22:18;;;;;;;3.20;2.40;;;;;;;28.92;36.38;101507.41;5028531;28;20430;-62
2022/06/18 09:24:49;;;;;;;2.78;2.33;;;;;;;28.70;37.12;101507.69;5026484;28;20422;-62
2022/06/18 09:27:22;;;;;;;3.78;2.67;;;;;;;28.60;36.40;101513.97;5028352;28;20505;-62
2022/06/18 09:29:57;;;;;;;3.35;2.55;;;;;;;28.72;36.49;101507.41;5028551;28;20513;-62
2022/06/18 09:32:28;;;;;;;4.20;2.37;;;;;;;28.80;36.29;101506.88;5028865;28;20889;-62
2022/06/18 09:35:02;;;;;;;3.65;2.65;;;;;;;28.85;36.04;101506.06;5028215;28;20430;-62
2022/06/18 09:37:37;;;;;;;3.33;2.40;;;;;;;28.75;36.35;101506.88;5028914;28;20414;-63
2022/06/18 09:40:12;;;;;;;3.55;2.60;;;;;;;28.77;36.32;101501.94;5026323;28;20440;-63
2022/06/18 09:42:47;;;;;;;3.17;2.35;;;;;;;28.74;36.42;101508.78;5027744;28;20416;-62
2022/06/18 09:45:20;;;;;;;4.00;2.70;;;;;;;28.73;36.14;101498.94;5027613;28;20491;-64
2022/06/18 09:47:49;;;;;;;3.03;2.33;;;;;;;28.89;36.63;101504.41;5035914;28;20855;-64
2022/06/18 09:50:21;;;;;;;2.50;2.30;;;;;;;28.96;36.07;101500.31;5028372;28;20497;-63
2022/06/18 09:52:52;;;;;;;4.68;2.83;;;;;;;28.93;35.74;101509.03;5032845;28;20920;-63
2022/06/18 09:55:24;;;;;;;2.90;2.60;;;;;;;28.91;35.80;101505.75;5040458;28;20425;-63
2022/06/18 09:57:56;;;;;;;4.80;2.63;;;;;;;28.74;35.87;101511.50;5020013;28;20437;-65
2022/06/18 10:00:28;;;;;;;4.35;2.50;;;;;;;28.73;36.33;101504.41;5029958;28;20516;-65
2022/06/18 10:02:58;;;;;;;2.67;2.45;;;;;;;28.77;35.44;101500.06;5029761;28;20437;-65
2022/06/18 10:08:15;;;;;;;3.35;2.40;;;;;;;28.70;35.48;101496.78;5030085;28;20414;-64
2022/06/18 10:10:50;;;;;;;4.90;2.78;;;;;;;28.64;35.99;101497.06;5030449;28;20518;-64
2022/06/18 10:13:24;;;;;;;4.40;2.33;;;;;;;28.55;36.37;101503.03;5032913;28;20497;-65
2022/06/18 10:15:52;;;;;;;3.40;2.60;;;;;;;28.48;35.62;101501.66;5034286;28;20507;-65
2022/06/18 10:18:34;;;;;;;4.25;2.50;;;;;;;28.46;36.19;101485.56;5031831;28;20515;-64
2022/06/18 10:21:11;;;;;;;3.90;2.35;;;;;;;28.63;35.73;101481.75;5030955;28;20899;-65
2022/06/18 10:23:51;;;;;;;2.55;2.35;;;;;;;28.70;35.51;101483.16;5026142;28;20505;-65
2022/06/18 10:26:30;;;;;;;3.15;2.33;;;;;;;28.67;35.55;101477.41;5028388;28;20505;-64
2022/06/18 10:29:06;;;;;;;3.92;2.50;;;;;;;28.73;35.57;101477.13;5027441;28;20913;-65
2022/06/18 10:31:47;;;;;;;2.60;2.35;;;;;;;28.72;35.39;101474.66;5028004;28;20517;-65
2022/06/18 10:34:29;;;;;;;3.70;2.58;;;;;;;28.65;35.50;101474.13;5028219;28;20415;-65
2022/06/18 10:37:06;;;;;;;2.78;2.58;;;;;;;28.78;35.28;101473.59;5027647;28;20476;-64
2022/06/18 10:39:43;;;;;;;2.75;2.28;;;;;;;28.86;34.99;101466.75;5025976;28;20924;-66
2022/06/18 10:42:28;;;;;;;2.78;2.30;;;;;;;28.94;35.10;101458.81;5022138;28;20456;-64
2022/06/18 10:45:17;;;;;;;4.43;2.30;;;;;;;28.84;35.31;101460.75;5024820;28;20804;-64
2022/06/18 10:47:47;;;;;;;2.85;2.20;;;;;;;28.86;35.13;101458.56;5013420;28;20425;-65
2022/06/18 10:50:16;;;;;;;2.88;2.38;;;;;;;28.83;35.00;101464.56;5026913;28;20476;-64
2022/06/18 10:52:44;;;;;;;3.00;2.40;;;;;;;28.75;35.01;101458.56;5031867;28;21018;-64
2022/06/18 10:55:17;;;;;;;2.47;2.10;;;;;;;28.83;34.12;101454.50;5031779;28;20446;-64
2022/06/18 10:57:46;;;;;;;3.10;2.20;;;;;;;28.91;34.06;101461.28;5032171;28;20489;-64
2022/06/18 11:00:17;;;;;;;4.30;2.70;;;;;;;28.94;34.60;101452.56;5032318;28;20497;-64
2022/06/18 11:02:46;;;;;;;3.58;2.10;;;;;;;29.08;33.84;101444.59;5030686;28;20490;-64
2022/06/18 11:05:24;;;;;;;2.57;2.37;;;;;;;29.14;33.64;101443.50;5032712;28;20958;-64
2022/06/18 11:07:53;;;;;;;2.93;2.00;;;;;;;29.14;33.52;101452.53;5027757;28;20420;-64
2022/06/18 11:10:35;;;;;;;2.47;2.20;;;;;;;29.06;34.01;101438.59;5034398;28;20424;-64
2022/06/18 11:13:06;;;;;;;2.63;2.13;;;;;;;29.02;34.09;101435.59;5032294;28;20445;-64
2022/06/18 11:15:36;;;;;;;2.95;2.20;;;;;;;29.16;34.22;101439.41;5032325;28;20800;-64
2022/06/18 11:18:04;;;;;;;2.45;2.25;;;;;;;29.12;34.28;101438.31;5038486;28;20418;-64
2022/06/18 11:20:33;;;;;;;2.80;2.00;;;;;;;29.07;33.96;101430.13;5036939;28;20495;-64
2022/06/18 11:23:03;;;;;;;2.22;2.03;;;;;;;29.08;33.67;101417.28;5034504;28;20432;-65
2022/06/18 11:25:35;;;;;;;3.17;2.25;;;;;;;29.25;32.92;101411.56;5032693;28;21008;-64
2022/06/18 11:28:08;;;;;;;2.90;2.28;;;;;;;29.24;33.16;101415.38;5038747;28;20922;-64
2022/06/18 11:30:40;;;;;;;4.37;2.40;;;;;;;29.31;33.64;101413.97;5032153;28;20928;-64
2022/06/18 11:33:20;;;;;;;2.63;2.15;;;;;;;29.16;33.15;101414.84;5032623;28;20406;-64
2022/06/18 11:35:50;;;;;;;2.30;2.08;;;;;;;29.02;32.73;101408.31;5032163;28;20497;-64
2022/06/18 11:38:26;;;;;;;2.88;2.20;;;;;;;28.99;32.89;101397.94;5041484;28;20503;-64
2022/06/18 11:40:55;;;;;;;2.05;1.83;;;;;;;29.03;33.25;101415.41;5031719;28;20504;-64
2022/06/18 11:43:38;;;;;;;3.45;2.20;;;;;;;29.12;32.69;101411.00;5028781;28;20580;-64
2022/06/18 11:46:09;;;;;;;2.47;2.20;;;;;;;29.44;32.75;101400.81;5025400;28;20416;-64
2022/06/18 11:48:42;;;;;;;5.93;2.50;;;;;;;29.50;33.29;101397.78;5036123;28;20486;-64
2022/06/18 11:51:18;;;;;;;2.92;2.17;;;;;;;29.53;32.12;101394.50;5035427;28;20426;-64
2022/06/18 11:53:53;;;;;;;2.40;2.10;;;;;;;29.49;31.83;101390.66;5043060;28;20476;-65
2022/06/18 11:56:26;;;;;;;2.28;2.08;;;;;;;29.67;32.04;101393.84;5032023;28;20498;-64
2022/06/18 11:58:59;;;;;;;2.90;2.13;;;;;;;29.60;31.59;101385.16;5031719;28;20425;-64
2022/06/18 12:01:33;;;;;;;2.90;2.00;;;;;;;29.59;32.33;101383.53;5031416;28;20503;-64
2022/06/18 12:04:05;;;;;;;3.58;2.08;;;;;;;29.76;31.98;101385.91;5036312;28;20447;-63
2022/06/18 12:06:40;;;;;;;2.78;2.20;;;;;;;29.71;32.01;101381.25;5047127;28;20416;-64
2022/06/18 12:09:09;;;;;;;3.20;2.10;;;;;;;29.70;32.40;101374.97;5044989;28;20497;-64
2022/06/18 12:11:53;;;;;;;3.97;2.03;;;;;;;29.62;31.31;101386.53;5033488;28;20509;-64